Boulder Creek, CA

1:55 PM PDT on September 27, 2016 (GMT -0700)
2 mi. N. of Boulder Creek, CA. near Mt. store | | Change Station

Elev 705 ft 37.15 °N, 122.13 °W | Updated 33 seconds ago

Partly Cloudy
Partly Cloudy
90.2 °F
Feels Like 86 °F
N
0.0
Wind Variable Wind from SSE
Gusts 0.0 mph

Today
High -- | Low -- °F
--% Chance of Precip.
Yesterday
High -- | Low -- °F
Precip. -- in
Pressure 29.84 in
Visibility 10.0 miles
Clouds Few 1400 ft
Few 3800 ft
Heat Index 86 °F
Dew Point 38 °F
Humidity 16%
Rainfall 0.00 in
Snow Depth Not available.
7:01 AM 6:56 PM
Waning Crescent, 9% visible
METAR KSJC 272053Z 31008KT 10SM FEW014 FEW038 34/01 A2984 RMK AO2 SLP103 FU FEW014 FU FEW038 T03440006 58023
Pressure 29.84 in
Visibility 10.0 miles
Clouds Few 1400 ft
Few 3800 ft
Heat Index 86 °F
Dew Point 38 °F
Humidity 16%
Rainfall 0.00 in
Snow Depth Not available.
7:01 AM 6:56 PM
Waning Crescent, 9% visible
METAR KSJC 272053Z 31008KT 10SM FEW014 FEW038 34/01 A2984 RMK AO2 SLP103 FU FEW014 FU FEW038 T03440006 58023

10-Day Weather Forecast

Almanac

Astronomy

Sep. 27, 2016 Rise Set
Actual Time
Civil Twilight
Nautical Twilight
Astronomical Twilight
Moon
Length of Visible Light
Length of Day
Tomorrow will be .
, % of the Moon is Illuminated

Today's Extremes

State Highs State Lows

Community

WunderPhotos

Upload Photos

1,942,168 photos uploaded!

WunderBlog® & News

Nearby

Air Quality

  Air Quality AQ Index Pollutant
Not available.

Snow Depth

Station Depth Elevation

Earthquake Activity

City Distance Mag. Time & Date
Minimum magnitude displayed is 2.5.

Coastal Water Temperatures

Place Temperature

Stations

Nearby Weather Stations

Station Location Temp. Windchill Dew Point Humidity Wind Precip. Elev Updated Type
                   

Watches & Warnings

There are currently no watches in effect.